Main page
METAR-TAF:

METAR-TAF

Airports :

Base de Almagro

Almagro, Spain

latitude: 38-57-11N, longitude: 3-44-29W, elevation: 629 m

Current weather observation

The report was made 48 minutes ago, at 16:00 UTC
Wind 16 kt from the West
Temperature 11°C
Humidity 66%
Pressure 1004 hPa
Visibility 10 km or more
Few clouds at a height of 3500 ft

METAR: LEAO 201600Z 27016KT 9999 FEW035 11/05 Q1004

Time: 17:48 (16:48 UTC)

Forecast

The report was made 2 hours and 48 minutes ago, at 14:00 UTC
Forecast valid from 20 at 15 UTC to 20 at 24 UTC
Wind 12 kt from the West
Visibility 10 km or more
Scattered clouds at a height of 2500 ft
Broken clouds at a height of 4500 ft
Temporary
from 20 at 15 UTC to 20 at 24 UTC
Visibility: 4000 m
Broken clouds at a height of 1500 ft
rain, mist
Probability 30% :
Temporary
from 20 at 15 UTC to 20 at 20 UTC
Wind 15 kt from the West/Southwest with gusts up to 25 kt

TAF: LEAO 201400Z 2015/2024 28012KT 9999 SCT025 BKN045 TEMPO 2015/2024 4000 RA BR BKN015 PROB30 TEMPO 2015/2020 24015G25KT

Weather observations and forecasts of more than 4000 airports (METAR and TAF reports).

The available stations are represented by yellow and red dots on the map.

Hover mouse over dot to see the name of the station.

Then click to see weather observations and forecasts.

To change the map : click on the green buttons with a black cross to zoom in, on the green button with a dash to zoom out, or on the green arrows for adjacent maps.


METAR-TAF: